Time;durP1;ratioP1;P1;durP2;ratioP2;P2;SDS_P1;SDS_P2;PMS_P1;PMS_P2;Temp;Humidity;BMP_temperature;BMP_pressure;BME280_temperature;BME280_humidity;BME280_pressure;Samples;Min_cycle;Max_cycle;Signal;HPM_P1;HPM_P2
2022/03/17 00:00:40;;;;;;;29.37;11.70;;;;;;;;;;5033823;28;20427;-76
2022/03/17 00:03:10;;;;;;;32.53;12.17;;;;;;;;;;5040547;28;20511;-75
2022/03/17 00:05:47;;;;;;;26.27;12.50;;;;;;;;;;5034082;28;20419;-76
2022/03/17 00:08:13;;;;;;;30.40;13.67;;;;;;;;;;5034659;28;20437;-77
2022/03/17 00:10:39;;;;;;;34.20;13.70;;;;;;;;;;5033423;28;20872;-76
2022/03/17 00:13:05;;;;;;;35.20;13.63;;;;;;;;;;5045558;28;20525;-76
2022/03/17 00:15:31;;;;;;;35.67;12.93;;;;;;;;;;5033396;28;20768;-76
2022/03/17 00:18:04;;;;;;;27.13;12.50;;;;;;;;;;5027960;28;20981;-76
2022/03/17 00:20:30;;;;;;;27.97;12.90;;;;;;;;;;5033863;28;21058;-75
2022/03/17 00:22:56;;;;;;;29.83;12.07;;;;;;;;;;5044916;28;20423;-75
2022/03/17 00:25:29;;;;;;;28.50;12.90;;;;;;;;;;5033435;28;20754;-75
2022/03/17 00:27:56;;;;;;;33.07;12.23;;;8.60;1.00;;;;;;5044063;28;20418;-75
2022/03/17 00:30:22;;;;;;;29.80;12.37;;;;;;;;;;5033446;28;20518;-75
2022/03/17 00:32:48;;;;;;;30.97;13.30;;;;;;;;;;5041638;28;20533;-75
2022/03/17 00:35:42;;;;;;;31.23;13.13;;;;;;;;;;5033569;28;20821;-75
2022/03/17 00:38:19;;;;;;;28.20;12.87;;;8.50;1.00;;;;;;5013697;28;20967;-75
2022/03/17 00:40:46;;;;;;;40.53;13.73;;;;;;;;;;5002260;28;20414;-75
2022/03/17 00:43:13;;;;;;;24.07;12.97;;;8.40;1.00;;;;;;5035147;28;20915;-75
2022/03/17 00:45:41;;;;;;;34.23;14.50;;;8.40;1.00;;;;;;5034224;28;20442;-76
2022/03/17 00:48:08;;;;;;;29.33;14.97;;;;;;;;;;5052935;28;20409;-75
2022/03/17 00:50:34;;;;;;;40.87;13.90;;;8.40;1.00;;;;;;5036390;28;20464;-76
2022/03/17 00:53:01;;;;;;;30.10;13.97;;;;;;;;;;5033089;28;20438;-76
2022/03/17 00:55:27;;;;;;;35.73;14.20;;;8.40;1.00;;;;;;5033470;28;20445;-76
2022/03/17 00:57:53;;;;;;;37.73;14.20;;;;;;;;;;5036986;28;20810;-76
2022/03/17 01:00:20;;;;;;;36.30;13.53;;;;;;;;;;5039325;28;20497;-76
2022/03/17 01:02:53;;;;;;;25.53;12.23;;;8.40;1.00;;;;;;5045099;28;20423;-76
2022/03/17 01:05:23;;;;;;;33.20;14.67;;;;;;;;;;5037308;28;20430;-76
2022/03/17 01:07:50;;;;;;;35.80;13.70;;;8.40;1.00;;;;;;5036979;28;20409;-76
2022/03/17 01:10:22;;;;;;;31.30;13.90;;;;;;;;;;5037864;28;20469;-76
2022/03/17 01:12:50;;;;;;;28.47;12.70;;;8.40;1.00;;;;;;5036592;28;20532;-76
2022/03/17 01:15:17;;;;;;;29.00;13.20;;;;;;;;;;5020543;28;20768;-76
2022/03/17 01:17:43;;;;;;;28.10;14.50;;;;;;;;;;5036562;28;20470;-76
2022/03/17 01:20:09;;;;;;;35.70;15.07;;;;;;;;;;5037361;28;20895;-75
2022/03/17 01:22:35;;;;;;;40.90;18.50;;;;;;;;;;5036472;28;20442;-75
2022/03/17 01:25:02;;;;;;;40.50;16.37;;;;;;;;;;5041729;28;20422;-75
2022/03/17 01:27:29;;;;;;;39.67;17.83;;;;;;;;;;5042080;28;20844;-76
2022/03/17 01:29:58;;;;;;;41.53;14.90;;;;;;;;;;5036975;28;20438;-75
2022/03/17 01:32:28;;;;;;;37.40;16.67;;;;;;;;;;5036653;28;20439;-75
2022/03/17 01:34:59;;;;;;;43.83;19.50;;;;;;;;;;5037306;28;20435;-75
2022/03/17 01:37:25;;;;;;;38.20;17.67;;;;;;;;;;5018368;28;20886;-75
2022/03/17 01:39:53;;;;;;;36.87;17.90;;;;;;;;;;5039922;28;20969;-75
2022/03/17 01:42:22;;;;;;;41.13;18.27;;;;;;;;;;5039531;28;20907;-75
2022/03/17 01:44:48;;;;;;;44.73;19.17;;;;;;;;;;5036135;28;20403;-76
2022/03/17 01:47:27;;;;;;;54.87;19.23;;;;;;;;;;5035823;28;20415;-75
2022/03/17 01:49:56;;;;;;;38.77;18.70;;;9.00;1.00;;;;;;5038378;28;20652;-76
2022/03/17 01:52:28;;;;;;;48.93;19.40;;;;;;;;;;5035950;28;20768;-76
2022/03/17 01:54:55;;;;;;;38.67;17.60;;;;;;;;;;5036223;28;20423;-76
2022/03/17 01:57:34;;;;;;;38.20;17.13;;;;;;;;;;5037788;28;20541;-76
2022/03/17 02:00:01;;;;;;;43.13;18.20;;;;;;;;;;5040084;28;20794;-76
2022/03/17 02:02:27;;;;;;;44.57;19.60;;;;;;;;;;5035492;28;20434;-77
2022/03/17 02:04:53;;;;;;;38.90;19.03;;;;;;;;;;5035824;28;20919;-77
2022/03/17 02:07:23;;;;;;;51.83;19.43;;;;;;;;;;5036478;28;20887;-77
2022/03/17 02:09:49;;;;;;;42.50;19.60;;;;;;;;;;5041251;28;20436;-76
2022/03/17 02:15:08;;;;;;;38.50;18.90;;;9.50;1.00;;;;;;5038988;28;20441;-76
2022/03/17 02:17:39;;;;;;;40.67;18.97;;;;;;;;;;5042586;28;20527;-76
2022/03/17 02:20:24;;;;;;;40.10;19.60;;;;;;;;;;5053094;28;20742;-76
2022/03/17 02:22:52;;;;;;;53.77;19.33;;;9.60;1.00;;;;;;5039317;28;20427;-76
2022/03/17 02:25:35;;;;;;;41.17;20.10;;;;;;;;;;5037145;28;20436;-76
2022/03/17 02:28:02;;;;;;;37.47;18.80;;;9.70;1.00;;;;;;5035128;28;20439;-77
2022/03/17 02:30:30;;;;;;;47.20;20.00;;;9.70;1.00;;;;;;5035614;28;20465;-76
2022/03/17 02:33:01;;;;;;;40.43;19.17;;;9.70;1.00;;;;;;5035337;28;20443;-76
2022/03/17 02:35:27;;;;;;;39.73;19.00;;;9.70;1.00;;;;;;5048407;28;20445;-75
2022/03/17 02:37:55;;;;;;;39.93;17.97;;;;;;;;;;5035148;28;20557;-75
2022/03/17 02:40:21;;;;;;;38.07;18.63;;;;;;;;;;5029409;28;20422;-76
2022/03/17 02:42:48;;;;;;;40.43;18.20;;;;;;;;;;5034818;28;20430;-76
2022/03/17 02:45:16;;;;;;;46.00;19.90;;;;;;;;;;5036309;28;20423;-76
2022/03/17 02:47:43;;;;;;;41.60;20.47;;;;;;;;;;5022651;28;20491;-75
2022/03/17 02:50:11;;;;;;;48.70;20.60;;;9.60;1.00;;;;;;5036080;28;20908;-75
2022/03/17 02:52:37;;;;;;;42.87;20.03;;;9.60;1.00;;;;;;5035083;28;21043;-76
2022/03/17 02:55:17;;;;;;;47.17;19.20;;;;;;;;;;5045976;28;20912;-76
2022/03/17 02:57:48;;;;;;;40.20;19.17;;;;;;;;;;5024742;28;20446;-76
2022/03/17 03:00:17;;;;;;;44.97;19.90;;;;;;;;;;5038817;28;20430;-76
2022/03/17 03:02:44;;;;;;;42.90;20.67;;;;;;;;;;5042077;28;20505;-76
2022/03/17 03:05:22;;;;;;;46.83;19.47;;;;;;;;;;5046794;28;20458;-77
2022/03/17 03:07:49;;;;;;;40.37;19.40;;;;;;;;;;5018753;28;20431;-75
2022/03/17 03:10:15;;;;;;;40.40;19.53;;;;;;;;;;5034439;28;20802;-75
2022/03/17 03:12:41;;;;;;;45.53;20.63;;;;;;;;;;5042579;28;20430;-75
2022/03/17 03:15:09;;;;;;;72.87;21.10;;;;;;;;;;5044622;28;20927;-76
2022/03/17 03:17:40;;;;;;;49.60;19.77;;;;;;;;;;5041302;28;20455;-76
2022/03/17 03:20:07;;;;;;;43.37;20.60;;;;;;;;;;5034614;28;20433;-75
2022/03/17 03:22:39;;;;;;;39.00;17.93;;;9.60;1.00;;;;;;5041611;28;20385;-75
2022/03/17 03:25:16;;;;;;;42.87;20.33;;;;;;;;;;5034533;28;20798;-75
2022/03/17 03:27:46;;;;;;;52.27;20.33;;;;;;;;;;5035856;28;20441;-75
2022/03/17 03:30:18;;;;;;;40.00;19.53;;;;;;;;;;5026266;28;20936;-75
2022/03/17 03:32:45;;;;;;;53.37;19.90;;;;;;;;;;5035229;28;20773;-75
2022/03/17 03:37:56;;;;;;;39.53;18.40;;;;;;;;;;5038017;28;20456;-75
2022/03/17 03:40:22;;;;;;;40.40;19.30;;;;;;;;;;5023176;28;20435;-75
2022/03/17 03:42:49;;;;;;;38.17;18.97;;;;;;;;;;5036324;28;20477;-75
2022/03/17 03:45:15;;;;;;;36.50;18.77;;;;;;;;;;5034333;28;20431;-75
2022/03/17 03:47:41;;;;;;;40.90;19.47;;;;;;;;;;5034871;28;20437;-75
2022/03/17 03:50:07;;;;;;;41.50;19.10;;;;;;;;;;5033953;28;20771;-75
2022/03/17 03:52:40;;;;;;;39.70;19.60;;;;;;;;;;5040457;28;20415;-76
2022/03/17 03:55:07;;;;;;;41.20;18.70;;;;;;;;;;5035320;28;20434;-76
2022/03/17 03:57:34;;;;;;;39.63;19.70;;;;;;;;;;5033742;28;20494;-76
2022/03/17 04:02:52;;;;;;;42.10;18.93;;;;;;;;;;4955791;28;20422;-76
2022/03/17 04:05:33;;;;;;;41.77;18.50;;;9.70;1.00;;;;;;4941894;28;20449;-76
2022/03/17 04:07:59;;;;;;;39.73;19.47;;;;;;;;;;4964432;28;20524;-76
2022/03/17 04:10:26;;;;;;;44.43;20.27;;;9.70;1.00;;;;;;4953300;29;20411;-76
2022/03/17 04:12:53;;;;;;;47.33;18.67;;;;;;;;;;4959915;28;20472;-76
2022/03/17 04:15:19;;;;;;;39.37;18.43;;;;;;;;;;4941673;29;20970;-76
2022/03/17 04:17:45;;;;;;;50.90;19.30;;;;;;;;;;4964040;28;20466;-76
2022/03/17 04:20:16;;;;;;;41.97;18.87;;;;;;;;;;4934173;29;20416;-76
2022/03/17 04:22:46;;;;;;;42.70;18.50;;;;;;;;;;4941810;28;20437;-76
2022/03/17 04:25:13;;;;;;;35.43;17.63;;;;;;;;;;4939222;29;20629;-76
2022/03/17 04:27:40;;;;;;;47.10;18.50;;;;;;;;;;4959529;28;20973;-76
2022/03/17 04:30:06;;;;;;;37.37;18.10;;;;;;;;;;4953136;28;20428;-76
2022/03/17 04:32:34;;;;;;;43.70;20.77;;;;;;;;;;4958874;28;20443;-76
2022/03/17 04:35:00;;;;;;;44.23;18.97;;;;;;;;;;4948353;29;20449;-76
2022/03/17 04:37:28;;;;;;;39.80;17.87;;;;;;;;;;4965747;28;20985;-75
2022/03/17 04:40:06;;;;;;;42.03;17.70;;;;;;;;;;4997012;28;20892;-76
2022/03/17 04:42:32;;;;;;;35.33;17.27;;;;;;;;;;5039582;28;20431;-75
2022/03/17 04:44:58;;;;;;;43.40;18.63;;;;;;;;;;5038260;28;20430;-75
2022/03/17 04:47:28;;;;;;;36.87;17.80;;;;;;;;;;5037052;28;20511;-75
2022/03/17 04:49:55;;;;;;;39.13;18.87;;;;;;;;;;5038105;28;20442;-75
2022/03/17 04:55:10;;;;;;;35.80;17.10;;;;;;;;;;5038012;28;20470;-76
2022/03/17 04:57:40;;;;;;;39.50;18.77;;;;;;;;;;5037078;28;20971;-76
2022/03/17 05:00:07;;;;;;;40.80;18.10;;;;;;;;;;5038627;28;20427;-76
2022/03/17 05:02:33;;;;;;;39.30;18.63;;;;;;;;;;5036865;28;20442;-76
2022/03/17 05:04:59;;;;;;;36.70;17.57;;;;;;;;;;5033890;28;20506;-76
2022/03/17 05:07:26;;;;;;;40.47;18.77;;;;;;;;;;5037272;28;20892;-75
2022/03/17 05:09:52;;;;;;;42.40;19.60;;;;;;;;;;5037785;28;20430;-75
2022/03/17 05:12:22;;;;;;;37.50;17.37;;;;;;;;;;5036890;28;20494;-75
2022/03/17 05:14:52;;;;;;;38.40;17.57;;;;;;;;;;5037083;28;20958;-74
2022/03/17 05:17:30;;;;;;;37.60;18.50;;;;;;;;;;5036593;28;20964;-75
2022/03/17 05:19:56;;;;;;;37.40;18.67;;;;;;;;;;5036999;28;20525;-75
2022/03/17 05:22:22;;;;;;;43.20;17.97;;;;;;;;;;5036792;28;20416;-76
2022/03/17 05:24:50;;;;;;;36.80;17.03;;;;;;;;;;5042198;28;20454;-76
2022/03/17 05:27:16;;;;;;;33.40;16.77;;;;;;;;;;5036623;28;20386;-76
2022/03/17 05:29:47;;;;;;;40.90;18.80;;;;;;;;;;5037134;28;20931;-76
2022/03/17 05:32:13;;;;;;;34.70;17.53;;;;;;;;;;5036502;28;20808;-77
2022/03/17 05:34:40;;;;;;;31.87;16.60;;;;;;;;;;5043299;28;20513;-77
2022/03/17 05:37:07;;;;;;;37.40;17.43;;;;;;;;;;5042563;28;20966;-75
2022/03/17 05:39:33;;;;;;;44.67;19.00;;;;;;;;;;5037503;28;20889;-76
2022/03/17 05:41:59;;;;;;;35.10;17.73;;;;;;;;;;5035646;28;20395;-76
2022/03/17 05:44:25;;;;;;;39.33;18.93;;;;;;;;;;5037105;28;20423;-76
2022/03/17 05:46:51;;;;;;;39.70;18.50;;;;;;;;;;5035448;28;20854;-76
2022/03/17 05:49:19;;;;;;;123.07;24.30;;;;;;;;;;5033515;28;20949;-76
2022/03/17 05:51:45;;;;;;;51.17;18.93;;;;;;;;;;5029382;28;20467;-76
2022/03/17 05:54:16;;;;;;;36.87;17.70;;;;;;;;;;5036382;28;20473;-79
2022/03/17 05:56:46;;;;;;;35.50;18.13;;;;;;;;;;5032470;28;20498;-78
2022/03/17 05:59:16;;;;;;;39.53;18.00;;;;;;;;;;5036967;28;20868;-75
2022/03/17 06:01:43;;;;;;;39.10;18.37;;;;;;;;;;5035720;28;20472;-76
2022/03/17 06:04:10;;;;;;;40.23;18.43;;;;;;;;;;5019069;28;20428;-76
2022/03/17 06:06:40;;;;;;;38.70;18.93;;;;;;;;;;5035445;28;20435;-78
2022/03/17 06:09:07;;;;;;;40.33;18.50;;;;;;;;;;5035939;28;20438;-77
2022/03/17 06:11:34;;;;;;;36.00;18.53;;;;;;;;;;5035301;28;20855;-77
2022/03/17 06:14:01;;;;;;;42.03;18.87;;;;;;;;;;5036299;28;20447;-77
2022/03/17 06:16:28;;;;;;;34.90;17.20;;;;;;;;;;5034475;28;20430;-77
2022/03/17 06:18:59;;;;;;;37.50;18.73;;;;;;;;;;5021952;28;20825;-77
2022/03/17 06:21:34;;;;;;;75.30;20.43;;;;;;;;;;5013833;28;20912;-77
2022/03/17 06:24:04;;;;;;;40.40;17.80;;;;;;;;;;5035985;28;20388;-77
2022/03/17 06:26:31;;;;;;;35.80;18.20;;;;;;;;;;5033997;28;20430;-77
2022/03/17 06:29:04;;;;;;;220.37;32.80;;;;;;;;;;5030291;28;20423;-78
2022/03/17 06:31:52;;;;;;;37.43;18.10;;;9.90;1.00;;;;;;5031933;28;20386;-78
2022/03/17 06:34:22;;;;;;;37.60;18.50;;;;;;;;;;5039589;28;20426;-79
2022/03/17 06:36:48;;;;;;;38.90;18.63;;;;;;;;;;5034237;28;20447;-79
2022/03/17 06:39:16;;;;;;;90.90;22.50;;;;;;;;;;5039554;28;20788;-78
2022/03/17 06:41:42;;;;;;;38.40;18.50;;;;;;;;;;5036193;28;20422;-76
2022/03/17 06:44:34;;;;;;;37.00;18.53;;;;;;;;;;5039101;28;20925;-77
2022/03/17 06:47:00;;;;;;;42.80;18.00;;;;;;;;;;5033773;28;20426;-76
2022/03/17 06:49:29;;;;;;;39.60;18.13;;;;;;;;;;5041442;28;20409;-77
2022/03/17 06:51:58;;;;;;;49.93;19.20;;;;;;;;;;5033153;28;20468;-77
2022/03/17 06:54:25;;;;;;;33.60;17.90;;;;;;;;;;5033086;28;20491;-76
2022/03/17 06:56:52;;;;;;;41.83;19.20;;;;;;;;;;5039929;28;20453;-76
2022/03/17 06:59:24;;;;;;;36.27;18.77;;;;;;;;;;5033683;28;20785;-76
2022/03/17 07:01:50;;;;;;;49.77;18.77;;;;;;;;;;5015875;28;20415;-76
2022/03/17 07:04:16;;;;;;;37.07;19.37;;;;;;;;;;5033224;28;20427;-76
2022/03/17 07:06:42;;;;;;;129.97;25.60;;;;;;;;;;5014124;28;20481;-75
2022/03/17 07:09:09;;;;;;;39.70;18.80;;;;;;;;;;5032867;28;20433;-76
2022/03/17 07:11:35;;;;;;;40.50;18.17;;;;;;;;;;5032031;28;20431;-76
2022/03/17 07:14:01;;;;;;;49.13;20.40;;;;;;;;;;4972611;28;1721587;-76
2022/03/17 07:16:27;;;;;;;37.80;18.50;;;;;;;;;;5039535;28;20587;-75
2022/03/17 07:18:53;;;;;;;54.77;19.13;;;;;;;;;;5028033;28;21078;-76
2022/03/17 07:21:23;;;;;;;43.10;18.97;;;;;;;;;;5028586;28;20435;-77
2022/03/17 07:23:49;;;;;;;37.77;19.13;;;;;;;;;;5033586;28;20481;-77
2022/03/17 07:26:16;;;;;;;40.73;18.40;;;;;;;;;;5019279;28;20394;-77
2022/03/17 07:28:44;;;;;;;37.33;18.43;;;;;;;;;;5033776;28;20434;-78
2022/03/17 07:31:10;;;;;;;38.33;18.10;;;;;;;;;;5046279;28;20426;-77
2022/03/17 07:33:37;;;;;;;38.60;18.70;;;;;;;;;;5034935;28;20487;-77
2022/03/17 07:36:05;;;;;;;41.27;19.10;;;11.30;1.00;;;;;;5034016;28;20825;-77
2022/03/17 07:38:31;;;;;;;36.80;19.10;;;;;;;;;;5034019;28;20454;-76
2022/03/17 07:40:59;;;;;;;39.23;19.50;;;11.40;1.00;;;;;;5033578;28;20449;-75
2022/03/17 07:43:25;;;;;;;40.83;19.70;;;;;;;;;;5033057;28;20393;-75
2022/03/17 07:45:53;;;;;;;40.13;19.07;;;;;;;;;;5043748;28;20415;-75
2022/03/17 07:48:19;;;;;;;38.27;18.60;;;;;;;;;;5023779;28;20755;-76
2022/03/17 07:50:46;;;;;;;42.77;19.70;;;;;;;;;;5031176;28;20427;-75
2022/03/17 07:53:12;;;;;;;51.50;20.57;;;;;;;;;;5014291;28;20801;-76
2022/03/17 07:55:38;;;;;;;46.57;19.10;;;;;;;;;;5032309;28;20442;-77
2022/03/17 07:58:04;;;;;;;42.37;20.33;;;;;;;;;;5033806;28;20458;-77
2022/03/17 08:00:30;;;;;;;44.47;20.23;;;;;;;;;;5033356;28;20480;-77
2022/03/17 08:02:57;;;;;;;51.17;19.83;;;;;;;;;;5033580;28;20457;-77
2022/03/17 08:05:23;;;;;;;38.57;19.23;;;;;;;;;;5035182;28;20834;-77
2022/03/17 08:07:49;;;;;;;60.30;21.67;;;;;;;;;;5034055;28;20413;-77
2022/03/17 08:10:15;;;;;;;40.27;19.00;;;;;;;;;;5043196;28;20446;-76
2022/03/17 08:12:42;;;;;;;53.23;20.73;;;;;;;;;;5034146;28;20405;-75
2022/03/17 08:15:08;;;;;;;48.40;19.93;;;;;;;;;;5013168;28;20414;-75
2022/03/17 08:17:34;;;;;;;54.23;21.13;;;;;;;;;;5012779;28;20952;-76
2022/03/17 08:20:02;;;;;;;37.17;19.23;;;;;;;;;;5020877;28;20415;-76
2022/03/17 08:22:28;;;;;;;47.40;20.70;;;;;;;;;;5017791;28;20450;-76
2022/03/17 08:25:12;;;;;;;40.70;19.97;;;;;;;;;;5013622;28;20386;-77
2022/03/17 08:27:42;;;;;;;42.80;20.70;;;;;;;;;;5008987;28;20387;-77
2022/03/17 08:30:08;;;;;;;40.23;19.23;;;;;;;;;;4991239;28;20915;-77
2022/03/17 08:32:34;;;;;;;38.63;20.83;;;;;;;;;;4998554;28;20402;-77
2022/03/17 08:35:05;;;;;;;45.37;20.70;;;;;;;;;;5012390;28;20440;-77
2022/03/17 08:37:31;;;;;;;42.73;20.87;;;;;;;;;;5012498;28;20474;-77
2022/03/17 08:39:57;;;;;;;43.00;20.20;;;;;;;;;;5012759;28;20455;-77
2022/03/17 08:42:23;;;;;;;43.40;20.70;;;;;;;;;;5012546;28;20893;-76
2022/03/17 08:44:49;;;;;;;45.83;20.97;;;;;;;;;;5013752;28;20420;-77
2022/03/17 08:50:00;;;;;;;48.10;21.17;;;;;;;;;;5015669;28;20418;-77
2022/03/17 08:52:28;;;;;;;49.57;21.33;;;;;;;;;;4987548;28;20454;-77
2022/03/17 08:54:55;;;;;;;55.87;20.37;;;;;;;;;;5004444;28;20417;-77
2022/03/17 08:57:22;;;;;;;49.40;21.30;;;;;;;;;;5000668;28;20442;-77
2022/03/17 08:59:48;;;;;;;44.73;19.80;;;;;;;;;;5007294;28;20525;-76
2022/03/17 09:02:14;;;;;;;57.03;21.60;;;;;;;;;;5013725;28;20591;-77
2022/03/17 09:04:41;;;;;;;47.70;20.60;;;;;;;;;;5012988;28;20428;-77
2022/03/17 09:07:08;;;;;;;37.50;19.40;;;;;;;;;;5012432;28;20452;-75
2022/03/17 09:09:36;;;;;;;40.57;20.17;;;13.30;1.00;;;;;;5020245;28;20907;-77
2022/03/17 09:12:05;;;;;;;53.53;21.80;;;13.40;1.00;;;;;;5016239;28;20488;-77
2022/03/17 09:14:40;;;;;;;41.27;20.13;;;13.50;1.00;;;;;;5013010;28;20459;-77
2022/03/17 09:17:10;;;;;;;46.37;20.57;;;;;;;;;;5015509;28;20489;-77
2022/03/17 09:19:38;;;;;;;41.10;20.10;;;;;;;;;;5044919;28;20904;-77
2022/03/17 09:22:04;;;;;;;34.57;18.63;;;;;;;;;;5037757;28;20385;-77
2022/03/17 09:24:30;;;;;;;42.43;19.60;;;;;;;;;;5026375;28;20380;-77
2022/03/17 09:27:10;;;;;;;41.87;21.10;;;;;;;;;;5042719;28;20425;-76
2022/03/17 09:29:38;;;;;;;39.57;20.20;;;;;;;;;;5029645;28;20827;-75
2022/03/17 09:32:05;;;;;;;40.67;20.20;;;;;;;;;;5036100;28;20401;-75
2022/03/17 09:34:32;;;;;;;59.57;21.47;;;;;;;;;;5026600;28;20415;-76
2022/03/17 09:36:58;;;;;;;84.87;24.73;;;;;;;;;;5043218;28;20463;-76
2022/03/17 09:39:45;;;;;;;44.50;20.23;;;;;;;;;;5034435;28;20423;-76
2022/03/17 09:42:15;;;;;;;42.67;18.80;;;14.10;1.00;;;;;;5035295;28;20381;-77
2022/03/17 09:44:42;;;;;;;42.57;20.57;;;;;;;;;;5040580;28;20813;-77
2022/03/17 09:47:11;;;;;;;42.53;19.57;;;;;;;;;;5035218;28;20398;-77
2022/03/17 09:49:37;;;;;;;38.57;19.37;;;14.00;1.00;;;;;;5028593;28;20464;-77
2022/03/17 09:52:13;;;;;;;40.20;20.10;;;13.90;1.00;;;;;;5035123;28;20411;-77
2022/03/17 09:54:40;;;;;;;44.10;19.70;;;13.90;1.00;;;;;;5033843;28;20423;-77
2022/03/17 09:57:06;;;;;;;40.07;20.30;;;;;;;;;;5034002;28;20493;-76
2022/03/17 09:59:32;;;;;;;45.97;20.53;;;;;;;;;;5034778;28;20536;-76
2022/03/17 10:01:58;;;;;;;41.30;19.17;;;;;;;;;;5034761;28;20781;-76
2022/03/17 10:04:24;;;;;;;44.20;19.20;;;;;;;;;;5032920;28;20920;-76
2022/03/17 10:06:51;;;;;;;37.10;18.80;;;;;;;;;;5034948;28;20422;-76
2022/03/17 10:09:17;;;;;;;44.43;20.07;;;;;;;;;;5034422;28;20417;-76
2022/03/17 10:11:43;;;;;;;49.47;21.20;;;;;;;;;;5034843;28;20425;-76
2022/03/17 10:14:09;;;;;;;38.87;19.63;;;;;;;;;;5016604;28;20453;-76
2022/03/17 10:16:37;;;;;;;38.60;19.63;;;;;;;;;;5016637;28;20409;-76
2022/03/17 10:19:05;;;;;;;46.57;21.93;;;13.70;1.00;;;;;;5034427;28;20388;-76
2022/03/17 10:21:32;;;;;;;37.97;20.70;;;13.50;1.00;;;;;;5016968;28;20397;-76
2022/03/17 10:24:02;;;;;;;44.30;21.03;;;13.50;1.00;;;;;;5034737;28;20403;-76
2022/03/17 10:26:32;;;;;;;50.07;21.47;;;;;;;;;;5034791;28;20418;-75
2022/03/17 10:29:15;;;;;;;38.63;20.20;;;13.40;1.00;;;;;;5033399;28;20498;-76
2022/03/17 10:31:50;;;;;;;47.93;22.07;;;;;;;;;;5034806;28;20765;-76
2022/03/17 10:34:16;;;;;;;46.67;21.83;;;;;;;;;;5034399;28;20450;-76
2022/03/17 10:36:45;;;;;;;44.17;20.80;;;;;;;;;;5034343;28;21016;-76
2022/03/17 10:39:11;;;;;;;41.30;20.23;;;;;;;;;;5034294;28;20386;-76
2022/03/17 10:41:44;;;;;;;44.57;20.40;;;13.60;1.00;;;;;;5034678;28;20468;-76
2022/03/17 10:44:12;;;;;;;41.13;20.40;;;;;;;;;;5034153;28;20411;-76
2022/03/17 10:46:38;;;;;;;43.13;19.87;;;;;;;;;;5033971;28;20747;-76
2022/03/17 10:49:05;;;;;;;49.70;20.43;;;;;;;;;;5033961;28;20477;-76
2022/03/17 10:51:37;;;;;;;47.20;21.30;;;13.70;1.00;;;;;;5033954;28;20487;-76
2022/03/17 10:54:10;;;;;;;38.83;20.20;;;;;;;;;;5034108;28;20393;-76
2022/03/17 10:56:40;;;;;;;42.40;21.10;;;;;;;;;;5034000;28;20478;-75
2022/03/17 10:59:07;;;;;;;41.20;20.93;;;;;;;;;;5033940;28;20921;-76
2022/03/17 11:01:37;;;;;;;41.57;20.63;;;;;;;;;;5033889;28;20385;-76
2022/03/17 11:04:04;;;;;;;41.30;20.77;;;;;;;;;;5033691;28;20404;-77
2022/03/17 11:06:30;;;;;;;42.60;19.80;;;;;;;;;;5033743;28;20411;-76
2022/03/17 11:09:00;;;;;;;47.90;22.93;;;13.60;1.00;;;;;;5033914;28;20765;-76
2022/03/17 11:11:27;;;;;;;43.93;20.87;;;;;;;;;;5033389;28;20418;-77
2022/03/17 11:13:56;;;;;;;42.50;21.03;;;;;;;;;;5033767;28;20402;-76
2022/03/17 11:16:25;;;;;;;49.80;21.80;;;;;;;;;;5033426;28;20468;-76
2022/03/17 11:18:51;;;;;;;40.53;20.80;;;;;;;;;;5033655;28;20464;-76
2022/03/17 11:21:21;;;;;;;43.23;21.27;;;13.50;1.00;;;;;;5033540;28;20392;-76
2022/03/17 11:23:55;;;;;;;41.97;21.17;;;13.40;1.00;;;;;;5033621;28;20794;-76
2022/03/17 11:26:37;;;;;;;47.60;20.20;;;;;;;;;;5033263;28;20915;-76
2022/03/17 11:29:08;;;;;;;42.80;20.93;;;13.40;1.00;;;;;;5033802;28;20403;-76
2022/03/17 11:31:56;;;;;;;47.43;22.90;;;13.40;1.00;;;;;;5033356;28;20751;-76
2022/03/17 11:34:46;;;;;;;48.03;21.83;;;;;;;;;;5033342;28;20415;-76
2022/03/17 11:37:26;;;;;;;46.93;22.70;;;13.40;1.00;;;;;;5033181;28;20422;-76
2022/03/17 11:39:59;;;;;;;47.30;22.63;;;;;;;;;;5032810;28;20437;-76
2022/03/17 11:42:32;;;;;;;43.50;21.70;;;;;;;;;;5033007;28;20435;-75
2022/03/17 11:45:13;;;;;;;46.90;23.30;;;;;;;;;;5033239;28;20390;-75
2022/03/17 11:48:06;;;;;;;44.87;22.43;;;13.50;1.00;;;;;;5032786;28;20808;-75
2022/03/17 11:50:39;;;;;;;58.23;24.23;;;;;;;;;;5032934;28;20477;-75
2022/03/17 11:53:14;;;;;;;47.97;23.70;;;;;;;;;;5032942;28;20385;-75
2022/03/17 11:55:43;;;;;;;49.73;24.17;;;;;;;;;;5032827;28;20393;-75
2022/03/17 11:58:23;;;;;;;41.47;21.87;;;13.60;1.00;;;;;;5033289;28;20446;-76
2022/03/17 12:01:06;;;;;;;47.00;24.00;;;13.70;1.00;;;;;;5032899;28;20769;-76
2022/03/17 12:03:39;;;;;;;46.67;22.40;;;13.70;1.00;;;;;;5032818;28;20419;-76
2022/03/17 12:06:08;;;;;;;47.77;22.87;;;;;;;;;;5032817;28;20817;-76
2022/03/17 12:08:38;;;;;;;47.23;23.43;;;13.70;1.00;;;;;;5032812;28;20404;-76
2022/03/17 12:11:10;;;;;;;43.47;22.70;;;;;;;;;;5032732;28;20406;-76
2022/03/17 12:13:36;;;;;;;46.17;24.30;;;;;;;;;;5033020;28;20436;-76
2022/03/17 12:16:04;;;;;;;47.00;22.73;;;13.20;1.00;;;;;;5019554;28;20451;-76
2022/03/17 12:18:30;;;;;;;45.57;23.37;;;;;;;;;;5032542;28;20788;-76
2022/03/17 12:20:57;;;;;;;51.20;23.60;;;;;;;;;;5032958;28;20761;-76
2022/03/17 12:23:45;;;;;;;49.47;23.90;;;12.90;1.00;;;;;;5032605;28;20453;-76
2022/03/17 12:26:11;;;;;;;56.77;22.97;;;;;;;;;;5032437;28;20426;-76
2022/03/17 12:28:47;;;;;;;55.30;23.90;;;;;;;;;;5032956;28;20414;-75
2022/03/17 12:31:13;;;;;;;51.47;21.93;;;;;;;;;;5032467;28;20402;-75
2022/03/17 12:33:42;;;;;;;49.97;22.70;;;12.20;1.00;;;;;;5034728;28;20564;-75
2022/03/17 12:36:09;;;;;;;49.10;21.93;;;12.20;1.00;;;;;;5034996;28;20544;-75
2022/03/17 12:38:41;;;;;;;36.47;14.77;;;;;;;;;;5035747;28;20434;-75
2022/03/17 12:41:15;;;;;;;42.23;18.40;;;11.90;1.00;;;;;;5034890;28;20938;-75
2022/03/17 12:43:50;;;;;;;30.13;16.37;;;11.90;1.00;;;;;;5033518;28;20434;-73
2022/03/17 12:46:16;;;;;;;38.30;14.03;;;;;;;;;;5016154;28;20927;-72
2022/03/17 12:48:42;;;;;;;32.47;8.70;;;;;;;;;;5033016;28;20435;-76
2022/03/17 12:51:28;;;;;;;49.07;10.57;;;11.00;1.00;;;;;;5018247;28;20911;-76
2022/03/17 12:53:59;;;;;;;41.63;10.60;;;11.20;1.00;;;;;;5029354;28;20437;-77
2022/03/17 12:56:25;;;;;;;19.63;8.30;;;;;;;;;;5035219;28;20528;-76
2022/03/17 12:58:51;;;;;;;31.60;10.20;;;;;;;;;;5018186;28;20813;-76
2022/03/17 13:01:17;;;;;;;26.73;8.90;;;;;;;;;;5036521;28;20510;-75
2022/03/17 13:03:44;;;;;;;22.27;8.60;;;;;;;;;;5038800;28;20425;-77
2022/03/17 13:08:55;;;;;;;16.07;6.90;;;11.10;1.00;;;;;;5036064;28;20405;-75
2022/03/17 13:14:20;;;;;;;33.03;8.00;;;;;;;;;;5030026;28;21004;-75
2022/03/17 13:16:46;;;;;;;20.93;7.67;;;;;;;;;;5015776;28;20425;-75
2022/03/17 13:19:13;;;;;;;19.10;7.80;;;;;;;;;;5018180;28;20920;-75
2022/03/17 13:21:39;;;;;;;13.50;7.10;;;;;;;;;;5020432;28;20407;-75
2022/03/17 13:24:15;;;;;;;22.20;8.07;;;10.80;1.00;;;;;;5017495;28;20515;-75
2022/03/17 13:26:41;;;;;;;19.93;7.03;;;10.70;1.00;;;;;;5015881;28;20423;-75
2022/03/17 13:29:13;;;;;;;19.50;6.77;;;10.60;1.00;;;;;;4998581;28;20502;-77
2022/03/17 13:31:46;;;;;;;15.77;7.00;;;;;;;;;;5015396;28;20821;-77
2022/03/17 13:34:37;;;;;;;16.77;6.70;;;10.90;1.00;;;;;;5014009;28;20459;-77
2022/03/17 13:37:10;;;;;;;20.87;7.63;;;10.80;1.00;;;;;;5011810;28;20469;-77
2022/03/17 13:39:37;;;;;;;16.97;7.47;;;;;;;;;;5012310;28;20430;-77
2022/03/17 13:42:11;;;;;;;27.67;8.80;;;10.80;1.00;;;;;;5010539;28;20412;-77
2022/03/17 13:44:50;;;;;;;19.57;7.80;;;;;;;;;;5015333;28;20454;-77
2022/03/17 13:47:24;;;;;;;20.60;7.63;;;10.90;1.00;;;;;;5015043;28;20442;-77
2022/03/17 13:50:09;;;;;;;19.53;8.40;;;;;;;;;;5007225;28;20434;-77
2022/03/17 13:52:35;;;;;;;29.33;8.43;;;;;;;;;;5010637;28;20854;-77
2022/03/17 13:55:01;;;;;;;27.53;8.90;;;;;;;;;;5009894;28;20823;-77
2022/03/17 13:57:27;;;;;;;23.63;8.60;;;;;;;;;;5020346;28;20494;-76
2022/03/17 13:59:54;;;;;;;30.00;9.77;;;;;;;;;;5015628;28;20427;-77
2022/03/17 14:02:22;;;;;;;17.80;7.87;;;;;;;;;;4997395;28;20510;-76
2022/03/17 14:04:54;;;;;;;23.13;8.23;;;;;;;;;;5014522;28;20420;-76
2022/03/17 14:07:20;;;;;;;19.00;8.83;;;;;;;;;;5015269;28;20492;-75
2022/03/17 14:09:46;;;;;;;21.90;9.40;;;;;;;;;;5014739;28;20446;-75
2022/03/17 14:12:12;;;;;;;28.87;8.50;;;;;;;;;;5015440;28;20424;-75
2022/03/17 14:14:38;;;;;;;25.87;8.43;;;;;;;;;;5027538;28;20488;-78
2022/03/17 14:17:04;;;;;;;18.80;7.90;;;;;;;;;;5034728;28;20491;-77
2022/03/17 14:19:31;;;;;;;20.63;8.60;;;;;;;;;;5016527;28;20433;-77
2022/03/17 14:24:42;;;;;;;33.67;7.73;;;;;;;;;;5034161;28;20591;-75
2022/03/17 14:27:08;;;;;;;17.97;8.07;;;;;;;;;;5034711;28;20784;-76
2022/03/17 14:29:34;;;;;;;17.00;8.03;;;;;;;;;;5034395;28;20427;-75
2022/03/17 14:32:05;;;;;;;19.00;8.10;;;;;;;;;;5034698;28;20838;-75